Time;durP1;ratioP1;P1;durP2;ratioP2;P2;SDS_P1;SDS_P2;PMS_P1;PMS_P2;Temp;Humidity;BMP_temperature;BMP_pressure;BME280_temperature;BME280_humidity;BME280_pressure;Samples;Min_cycle;Max_cycle;Signal;HPM_P1;HPM_P2
2022/04/29 00:00:24;;;;;;;8.00;7.17;;;;;;;9.48;79.51;102505.41;4979956;28;20241;-53
2022/04/29 00:02:51;;;;;;;6.70;6.00;;;;;;;9.41;79.67;102516.53;4992452;28;20229;-52
2022/04/29 00:05:19;;;;;;;9.27;6.60;;;;;;;9.40;79.58;102508.59;4991236;28;20240;-52
2022/04/29 00:07:46;;;;;;;11.93;7.70;;;;;;;9.40;78.96;102519.06;4996478;28;20618;-52
2022/04/29 00:10:19;;;;;;;15.63;8.47;;;;;;;9.46;78.76;102519.28;5004106;28;20237;-53
2022/04/29 00:12:48;;;;;;;8.40;7.07;;;;;;;9.40;78.85;102514.72;5002538;28;20622;-52
2022/04/29 00:15:20;;;;;;;8.17;7.37;;;;;;;9.40;79.06;102511.22;4985832;28;20284;-52
2022/04/29 00:17:48;;;;;;;9.50;7.73;;;;;;;9.45;79.47;102517.50;4985560;28;20248;-53
2022/04/29 00:20:21;;;;;;;10.53;8.17;;;;;;;9.37;80.33;102509.41;4980933;28;20720;-56
2022/04/29 00:22:50;;;;;;;11.20;7.30;;;;;;;9.38;80.27;102513.81;4991742;28;20233;-53
2022/04/29 00:25:16;;;;;;;9.27;8.13;;;;;;;9.34;80.97;102519.78;4990540;28;20781;-53
2022/04/29 00:27:43;;;;;;;7.80;7.03;;;;;;;9.30;82.01;102518.81;4987241;28;20320;-53
2022/04/29 00:30:12;;;;;;;10.03;8.27;;;;;;;9.27;82.58;102509.94;5003540;28;20287;-54
2022/04/29 00:32:39;;;;;;;10.67;8.73;;;;;;;9.23;82.12;102508.03;5005470;28;20230;-54
2022/04/29 00:35:08;;;;;;;9.73;8.27;;;;;;;9.17;81.88;102510.47;4999375;28;20222;-52
2022/04/29 00:37:45;;;;;;;8.27;7.47;;;;;;;9.13;81.73;102514.72;4992411;28;20580;-53
2022/04/29 00:40:16;;;;;;;9.00;8.10;;;;;;;9.12;81.36;102514.66;4997128;28;20742;-53
2022/04/29 00:42:45;;;;;;;9.47;7.93;;;;;;;9.09;81.64;102512.84;4999697;28;20691;-53
2022/04/29 00:45:12;;;;;;;8.83;7.83;;;;;;;9.10;81.34;102509.38;4988041;28;20261;-52
2022/04/29 00:47:38;;;;;;;10.57;7.77;;;;;;;9.10;81.56;102498.00;4991660;28;20716;-53
2022/04/29 00:50:06;;;;;;;8.97;7.80;;;;;;;9.04;81.38;102504.81;4999487;28;20249;-53
2022/04/29 00:52:36;;;;;;;9.27;8.27;;;;;;;9.04;81.59;102509.16;4989632;28;20261;-54
2022/04/29 00:55:07;;;;;;;8.07;7.17;;;;;;;9.02;81.90;102496.03;4992177;28;20241;-53
2022/04/29 00:57:40;;;;;;;7.30;6.60;;;;;;;9.02;82.20;102506.50;4992637;28;20245;-53
2022/04/29 01:00:10;;;;;;;10.13;7.50;;;;;;;9.02;82.09;102498.66;4990559;28;20242;-52
2022/04/29 01:02:38;;;;;;;7.97;7.17;;;;;;;8.97;81.89;102502.81;5001369;28;20236;-54
2022/04/29 01:05:11;;;;;;;8.47;6.77;;;;;;;8.94;81.44;102507.94;4989995;28;20281;-52
2022/04/29 01:07:39;;;;;;;8.97;7.87;;;;;;;8.93;81.00;102500.06;4985989;28;20253;-55
2022/04/29 01:10:07;;;;;;;8.27;7.47;;;;;;;8.91;80.87;102497.38;4986670;28;20260;-53
2022/04/29 01:12:37;;;;;;;9.00;6.80;;;;;;;8.94;80.56;102499.22;5002623;28;20272;-53
2022/04/29 01:15:06;;;;;;;8.00;6.83;;;;;;;8.97;80.45;102496.69;4992184;28;20335;-53
2022/04/29 01:17:43;;;;;;;8.17;7.30;;;;;;;8.98;80.84;102491.50;4996565;28;20241;-52
2022/04/29 01:20:15;;;;;;;12.27;8.07;;;;;;;9.01;81.67;102499.47;4986871;28;20232;-54
2022/04/29 01:22:43;;;;;;;7.40;6.63;;;;;;;9.01;81.63;102485.47;5001921;28;20228;-54
2022/04/29 01:25:12;;;;;;;13.23;6.77;;;;;;;9.02;81.98;102490.78;4987866;28;20232;-53
2022/04/29 01:27:39;;;;;;;7.67;6.97;;;;;;;9.03;80.40;102487.31;4988004;28;20969;-53
2022/04/29 01:30:08;;;;;;;8.33;6.80;;;;;;;9.04;79.08;102489.09;5002477;28;20229;-52
2022/04/29 01:32:34;;;;;;;8.00;7.30;;;;;;;9.00;79.22;102481.97;5004281;28;20249;-53
2022/04/29 01:35:01;;;;;;;8.00;6.87;;;;;;;9.00;79.48;102481.09;4987277;28;20274;-52
2022/04/29 01:37:28;;;;;;;9.20;6.47;;;;;;;8.95;79.47;102478.31;4995493;28;20249;-54
2022/04/29 01:39:55;;;;;;;8.37;6.70;;;;;;;8.97;79.95;102481.88;4985513;28;20249;-53
2022/04/29 01:42:22;;;;;;;8.73;7.53;;;;;;;9.03;79.98;102482.06;4990043;28;20238;-53
2022/04/29 01:44:48;;;;;;;9.10;6.97;;;;;;;9.04;80.18;102489.09;5000315;28;20232;-53
2022/04/29 01:47:15;;;;;;;11.20;6.80;;;;;;;9.05;79.25;102484.72;5003749;28;20731;-53
2022/04/29 01:49:42;;;;;;;12.50;7.80;;;;;;;9.03;79.82;102476.84;4991804;28;20242;-52
2022/04/29 01:52:09;;;;;;;9.30;7.47;;;;;;;9.05;80.24;102485.63;4999001;28;20233;-53
2022/04/29 01:54:35;;;;;;;11.30;8.03;;;;;;;9.03;82.57;102482.06;4993771;28;20656;-53
2022/04/29 01:57:04;;;;;;;10.97;8.57;;;;;;;8.98;83.56;102483.63;4989816;28;20235;-52
2022/04/29 01:59:41;;;;;;;;;;;;;;;;;;;;;
2022/04/29 02:02:08;;;;;;;11.77;9.57;;;;;;;8.70;83.88;102479.19;4985529;28;20228;-52
2022/04/29 02:04:35;;;;;;;13.00;9.00;;;;;;;8.51;84.45;102479.38;4992295;28;20724;-53
2022/04/29 02:07:01;;;;;;;13.30;8.33;;;;;;;8.39;85.18;102473.69;4987159;28;20238;-54
2022/04/29 02:09:28;;;;;;;13.30;9.37;;;;;;;8.35;85.73;102475.28;4988916;28;20647;-54
2022/04/29 02:12:06;;;;;;;13.77;8.07;;;;;;;8.27;86.41;102472.41;4988620;28;20642;-53
2022/04/29 02:14:39;;;;;;;15.80;9.33;;;;;;;8.21;87.23;102473.91;4986691;28;20245;-52
2022/04/29 02:17:06;;;;;;;14.80;8.90;;;;;;;8.16;87.83;101805.78;4994660;28;20248;-53
2022/04/29 02:19:38;;;;;;;12.23;7.80;;;;;;;8.16;88.20;102475.47;5000812;28;20292;-55
2022/04/29 02:22:06;;;;;;;10.80;8.07;;;;;;;8.16;87.89;102480.69;4989699;28;20240;-53
2022/04/29 02:24:37;;;;;;;10.10;7.77;;;;;;;8.13;88.07;102481.47;4994225;28;20246;-54
2022/04/29 02:27:07;;;;;;;12.40;8.10;;;;;;;8.11;88.56;102475.31;4998432;28;20242;-53
2022/04/29 02:29:35;;;;;;;8.60;7.70;;;;;;;8.18;88.85;102479.94;4986681;28;20246;-52
2022/04/29 02:32:01;;;;;;;9.37;7.20;;;;;;;8.15;88.41;102471.06;4983304;28;20249;-52
2022/04/29 02:34:28;;;;;;;9.27;6.67;;;;;;;8.05;88.48;102478.56;4989094;28;20237;-52
2022/04/29 02:36:54;;;;;;;9.40;8.40;;;;;;;7.98;88.69;102475.69;4999596;28;20383;-53
2022/04/29 02:39:21;;;;;;;9.40;7.83;;;;;;;7.90;88.56;102475.41;4995627;28;20233;-52
2022/04/29 02:41:48;;;;;;;8.40;7.57;;;;;;;7.88;88.36;102471.81;5011879;28;20739;-52
2022/04/29 02:44:14;;;;;;;9.63;7.60;;;;;;;7.88;88.40;102474.44;5003547;28;20242;-53
2022/04/29 02:49:22;;;;;;;9.27;8.23;;;;;;;7.94;88.27;102469.44;5004612;28;20224;-53
2022/04/29 02:51:48;;;;;;;10.60;6.93;;;;;;;7.96;88.63;102475.59;4996229;28;20238;-52
2022/04/29 02:54:15;;;;;;;11.73;7.07;;;;;;;7.98;89.13;102471.34;5005879;28;20691;-52
2022/04/29 02:56:42;;;;;;;8.23;7.43;;;;;;;8.04;90.16;102468.94;5001347;28;20252;-54
2022/04/29 02:59:08;;;;;;;12.23;8.67;;;;;;;8.11;90.78;102468.34;4990180;28;20229;-53
2022/04/29 03:01:35;;;;;;;8.30;7.13;;;;;;;8.01;90.83;102468.84;4996096;28;20244;-53
2022/04/29 03:04:07;;;;;;;9.67;7.60;;;;;;;7.94;91.16;102468.56;5007699;28;20316;-53
2022/04/29 03:06:33;;;;;;;8.00;6.90;;;;;;;7.95;90.90;102463.38;4985203;28;20275;-53
2022/04/29 03:09:00;;;;;;;9.47;7.57;;;;;;;7.97;90.52;102455.56;4983975;28;20257;-52
2022/04/29 03:11:26;;;;;;;8.37;7.03;;;;;;;7.97;90.29;102464.31;4998735;28;20280;-52
2022/04/29 03:13:54;;;;;;;13.47;8.43;;;;;;;7.97;90.48;102464.31;5001462;28;20238;-53
2022/04/29 03:16:20;;;;;;;10.77;8.63;;;;;;;7.98;90.10;102459.97;4988120;28;20284;-54
2022/04/29 03:18:47;;;;;;;9.60;8.10;;;;;;;8.05;89.77;102457.66;4991093;28;20296;-52
2022/04/29 03:21:15;;;;;;;10.03;7.70;;;;;;;8.00;90.09;102459.22;4991875;28;20241;-53
2022/04/29 03:23:42;;;;;;;8.90;8.00;;;;;;;7.94;90.22;102464.22;5001986;28;20290;-54
2022/04/29 03:26:08;;;;;;;10.73;8.20;;;;;;;7.96;90.58;102462.53;5005154;28;20654;-53
2022/04/29 03:28:34;;;;;;;9.13;7.83;;;;;;;7.98;90.72;102463.47;5000149;28;20604;-52
2022/04/29 03:31:04;;;;;;;9.20;7.20;;;;;;;7.94;91.09;102464.22;4995945;28;20229;-52
2022/04/29 03:33:30;;;;;;;9.50;7.77;;;;;;;7.87;90.79;102462.19;4983713;28;20257;-56
2022/04/29 03:35:57;;;;;;;8.37;7.53;;;;;;;7.85;90.48;102458.63;4996011;28;20289;-54
2022/04/29 03:38:25;;;;;;;10.40;7.53;;;;;;;7.76;90.80;102459.19;4987115;28;20285;-52
2022/04/29 03:40:52;;;;;;;8.97;7.37;;;;;;;-145.23;100.00;58621.06;4992176;28;20853;-53
2022/04/29 03:43:18;;;;;;;11.37;7.37;;;;;;;-145.23;100.00;58621.06;5001354;28;20782;-53
2022/04/29 03:45:45;;;;;;;10.03;7.53;;;;;;;-145.23;100.00;58621.06;4999812;28;20307;-52
2022/04/29 03:48:12;;;;;;;9.03;6.80;;;;;;;-145.23;100.00;58621.06;4986945;28;20301;-52
2022/04/29 03:50:38;;;;;;;10.37;6.93;;;;;;;-145.23;100.00;58621.06;5001333;28;20237;-53
2022/04/29 03:53:06;;;;;;;10.70;8.33;;;;;;;7.76;90.81;102459.19;4989331;28;20287;-54
2022/04/29 03:55:34;;;;;;;10.00;7.90;;;;;;;7.68;91.04;102460.59;4996630;28;20234;-54
2022/04/29 03:58:02;;;;;;;11.53;7.90;;;;;;;7.65;91.10;102458.75;4995048;28;20321;-52
2022/04/29 04:00:32;;;;;;;11.47;7.90;;;;;;;7.69;90.83;102457.16;4988507;28;20304;-53
2022/04/29 04:02:59;;;;;;;9.27;7.50;;;;;;;7.71;91.08;102455.47;4999802;28;20253;-53
2022/04/29 04:05:28;;;;;;;12.77;7.87;;;;;;;7.75;91.74;102451.25;4988365;28;20258;-53
2022/04/29 04:07:55;;;;;;;19.07;7.83;;;;;;;7.74;92.41;102457.31;4986334;28;22577;-52
2022/04/29 04:10:21;;;;;;;14.17;8.60;;;;;;;7.72;92.49;102454.66;4993483;28;20659;-53
2022/04/29 04:12:51;;;;;;;9.77;8.20;;;;;;;7.73;92.31;102460.78;4985078;28;20285;-53
2022/04/29 04:15:26;;;;;;;10.60;7.67;;;;;;;7.77;91.93;102457.44;4985660;28;20238;-54
2022/04/29 04:17:52;;;;;;;8.93;7.77;;;;;;;7.74;92.38;102454.72;4999089;28;20722;-53
2022/04/29 04:20:19;;;;;;;10.20;7.63;;;;;;;7.74;92.50;102454.72;4996108;28;20272;-53
2022/04/29 04:22:47;;;;;;;11.53;8.07;;;;;;;7.76;92.84;102458.28;4981577;28;20259;-53
2022/04/29 04:25:14;;;;;;;9.30;8.40;;;;;;;7.85;92.66;102459.50;4992330;28;20311;-53
2022/04/29 04:27:42;;;;;;;11.20;8.70;;;;;;;7.97;90.92;102460.78;5001654;28;20326;-53
2022/04/29 04:30:10;;;;;;;9.97;8.20;;;;;;;7.94;90.83;102465.94;4990880;28;20788;-53
2022/04/29 04:32:38;;;;;;;15.27;9.43;;;;;;;7.95;89.85;102468.59;4983331;28;20230;-52
2022/04/29 04:35:07;;;;;;;11.60;9.27;;;;;;;7.93;89.89;102467.63;4984270;28;20773;-53
2022/04/29 04:37:34;;;;;;;10.73;8.53;;;;;;;7.94;89.45;102474.66;4992543;28;20273;-53
2022/04/29 04:40:02;;;;;;;13.13;8.93;;;;;;;7.94;89.55;102469.44;4989979;28;20272;-52
2022/04/29 04:42:31;;;;;;;9.20;8.17;;;;;;;7.95;89.46;102467.72;4989732;28;20238;-53
2022/04/29 04:44:58;;;;;;;9.97;8.30;;;;;;;8.01;89.98;102471.44;4994162;28;20225;-52
2022/04/29 04:47:27;;;;;;;9.23;7.20;;;;;;;8.04;89.69;102468.94;4995829;28;20238;-54
2022/04/29 04:49:53;;;;;;;10.43;8.23;;;;;;;8.08;89.29;102463.00;4992687;28;20309;-52
2022/04/29 04:52:19;;;;;;;9.03;8.13;;;;;;;8.13;88.88;102471.00;4987774;28;20290;-53
2022/04/29 04:54:46;;;;;;;9.80;7.60;;;;;;;8.15;88.51;102473.69;4984684;28;20252;-53
2022/04/29 04:57:14;;;;;;;11.70;9.33;;;;;;;8.19;88.82;102475.59;4995027;28;20237;-52
2022/04/29 04:59:43;;;;;;;10.77;8.30;;;;;;;8.23;88.65;102478.34;4997202;28;20264;-53
2022/04/29 05:02:09;;;;;;;8.40;7.60;;;;;;;8.27;88.22;102484.59;4987683;28;20424;-52
2022/04/29 05:04:37;;;;;;;9.63;7.30;;;;;;;8.35;87.95;102480.53;4980829;28;20234;-52
2022/04/29 05:07:04;;;;;;;11.67;8.10;;;;;;;8.46;87.55;102481.84;5000332;28;20237;-52
2022/04/29 05:09:31;;;;;;;8.17;7.37;;;;;;;8.50;87.20;102477.63;4980412;28;20226;-53
2022/04/29 05:11:58;;;;;;;10.43;7.47;;;;;;;8.56;87.03;102478.72;4987383;28;20634;-53
2022/04/29 05:14:24;;;;;;;9.23;7.63;;;;;;;8.64;86.83;102486.84;4993318;28;20248;-53
2022/04/29 05:16:50;;;;;;;10.70;8.77;;;;;;;8.63;85.25;102484.16;4991653;28;20233;-52
2022/04/29 05:19:16;;;;;;;13.27;8.63;;;;;;;8.70;85.44;102489.66;4981352;28;20631;-53
2022/04/29 05:21:46;;;;;;;10.53;8.77;;;;;;;8.67;85.39;102486.03;4994599;28;20264;-53
2022/04/29 05:24:12;;;;;;;9.20;8.23;;;;;;;8.71;84.87;102495.81;4983332;28;20304;-53
2022/04/29 05:26:39;;;;;;;11.30;7.37;;;;;;;8.78;84.47;102493.44;4986848;28;20244;-53
2022/04/29 05:29:10;;;;;;;8.70;7.80;;;;;;;8.85;83.74;102494.56;4986162;28;20234;-52
2022/04/29 05:31:36;;;;;;;7.60;6.80;;;;;;;8.92;83.74;102493.94;4994359;28;20248;-52
2022/04/29 05:34:04;;;;;;;12.27;7.37;;;;;;;9.01;83.28;102485.47;4996709;28;20236;-54
2022/04/29 05:36:32;;;;;;;11.23;8.07;;;;;;;9.06;83.14;102487.41;4983836;28;20571;-54
2022/04/29 05:44:28;;;;;;;10.80;8.33;;;;;;;9.30;83.37;102478.56;4982038;28;20232;-54
2022/04/29 05:46:57;;;;;;;13.67;7.93;;;;;;;9.37;83.04;102475.31;5000527;28;20292;-52
2022/04/29 05:49:27;;;;;;;15.43;8.27;;;;;;;9.45;83.22;102475.56;4997671;28;20234;-53
2022/04/29 05:51:57;;;;;;;14.90;8.33;;;;;;;9.55;83.04;102485.50;4999074;28;20234;-54
2022/04/29 05:54:25;;;;;;;10.17;7.87;;;;;;;9.58;82.81;102485.56;4996004;28;20246;-53
2022/04/29 05:56:51;;;;;;;10.73;8.70;;;;;;;9.65;81.96;102470.91;5005068;28;20237;-54
2022/04/29 05:59:18;;;;;;;11.83;8.87;;;;;;;9.74;81.33;102471.22;4998366;28;20303;-53
2022/04/29 06:01:44;;;;;;;13.47;9.00;;;;;;;9.86;81.15;102468.06;5002542;28;20229;-54
2022/04/29 06:04:10;;;;;;;13.40;8.97;;;;;;;9.96;81.36;102473.63;5001838;28;20233;-54
2022/04/29 06:06:37;;;;;;;13.77;9.40;;;;;;;10.06;81.29;102476.53;5005301;28;20246;-54
2022/04/29 06:09:03;;;;;;;12.73;8.70;;;;;;;10.20;80.42;102475.19;5006147;28;20229;-54
2022/04/29 06:11:31;;;;;;;9.43;7.70;;;;;;;10.43;80.45;102483.75;4995139;28;20233;-53
2022/04/29 06:13:57;;;;;;;14.20;7.73;;;;;;;10.47;69.91;102478.63;4993854;28;20261;-53
2022/04/29 06:16:24;;;;;;;10.00;6.80;;;;;;;10.60;66.73;102473.69;4992182;28;20303;-53
2022/04/29 06:18:52;;;;;;;13.77;5.90;;;;;;;10.72;65.70;102479.28;4990943;28;20296;-53
2022/04/29 06:21:19;;;;;;;8.07;5.00;;;;;;;10.85;66.73;102484.00;4998471;28;20234;-52
2022/04/29 06:23:45;;;;;;;7.83;5.07;;;;;;;10.97;65.78;102475.53;4989292;28;20252;-53
2022/04/29 06:26:14;;;;;;;8.90;4.10;;;;;;;11.11;64.12;102476.78;4988559;28;20312;-52
2022/04/29 06:28:41;;;;;;;8.10;4.80;;;;;;;11.22;61.92;102482.31;4998026;28;20222;-52
2022/04/29 06:31:08;;;;;;;4.27;3.87;;;;;;;11.34;58.39;102474.72;4999538;28;20234;-54
2022/04/29 06:33:37;;;;;;;9.88;4.75;;;;;;;11.41;55.41;102476.66;4988780;28;20249;-52
2022/04/29 06:36:05;;;;;;;6.53;3.70;;;;;;;11.53;55.58;102480.41;4989052;28;20248;-53
2022/04/29 06:38:32;;;;;;;6.18;4.72;;;;;;;11.61;54.94;102481.47;4998856;28;20221;-53
2022/04/29 06:40:59;;;;;;;9.60;4.80;;;;;;;11.61;53.32;102490.25;5002225;28;20315;-52
2022/04/29 06:43:28;;;;;;;8.98;4.20;;;;;;;11.70;52.85;102487.81;4988675;28;20229;-51
2022/04/29 06:45:55;;;;;;;8.65;4.20;;;;;;;11.80;51.88;102485.41;4992915;28;20234;-52
2022/04/29 06:48:22;;;;;;;4.90;4.07;;;;;;;11.87;54.04;102496.13;4987465;28;20596;-52
2022/04/29 06:50:48;;;;;;;11.52;4.20;;;;;;;11.94;53.76;102484.88;4991613;28;20238;-53
2022/04/29 06:53:14;;;;;;;7.75;3.22;;;;;;;12.06;51.03;102493.91;5007462;28;20808;-58
2022/04/29 06:55:41;;;;;;;5.68;4.22;;;;;;;12.20;49.97;102486.28;4991098;28;20276;-53
2022/04/29 06:58:08;;;;;;;10.88;3.95;;;;;;;12.32;49.94;102487.44;4999239;28;20707;-53
2022/04/29 07:00:35;;;;;;;7.45;3.33;;;;;;;12.50;49.70;102493.91;4998967;28;20250;-53
2022/04/29 07:03:03;;;;;;;4.57;2.67;;;;;;;12.59;48.52;102494.06;4993337;28;20712;-53
2022/04/29 07:05:31;;;;;;;5.97;3.45;;;;;;;12.72;46.93;102493.44;4997372;28;20317;-55
2022/04/29 07:07:57;;;;;;;6.10;2.95;;;;;;;12.78;47.17;102493.56;4991945;28;20229;-53
2022/04/29 07:10:24;;;;;;;4.68;2.85;;;;;;;12.82;47.27;102499.78;4997937;28;20233;-53
2022/04/29 07:12:50;;;;;;;5.43;2.97;;;;;;;12.75;46.73;102493.50;4989648;28;20230;-53
2022/04/29 07:15:17;;;;;;;4.57;2.42;;;;;;;12.88;46.61;102490.25;5001988;28;20273;-53
2022/04/29 07:17:44;;;;;;;6.32;2.17;;;;;;;12.75;44.78;102490.88;4986745;28;20753;-53
2022/04/29 07:20:13;;;;;;;4.72;2.15;;;;;;;12.89;45.67;102491.13;5004511;28;20303;-54
2022/04/29 07:22:41;;;;;;;3.22;2.15;;;;;;;13.06;46.68;102488.78;5011650;28;20271;-53
2022/04/29 07:25:09;;;;;;;1.90;1.67;;;;;;;13.19;44.86;102493.38;5019167;28;20253;-52
2022/04/29 07:27:36;;;;;;;2.70;1.70;;;;;;;13.33;44.37;102488.38;5009045;28;20824;-53
2022/04/29 07:30:04;;;;;;;6.30;2.10;;;;;;;13.62;43.45;102486.19;5006714;28;20235;-53
2022/04/29 07:32:31;;;;;;;4.05;2.25;;;;;;;13.59;42.69;102486.13;4993544;28;20618;-54
2022/04/29 07:43:13;;;;;;;8.32;2.38;;;;;;;13.84;41.26;102487.38;4990572;28;20310;-53
2022/04/29 07:45:40;;;;;;;3.78;2.38;;;;;;;13.83;41.20;102489.13;4990103;28;20234;-53
2022/04/29 07:48:07;;;;;;;2.45;1.95;;;;;;;13.99;41.65;102491.97;4997398;28;20284;-52
2022/04/29 07:50:34;;;;;;;3.53;2.40;;;;;;;14.03;43.49;102484.09;4990164;28;20495;-53
2022/04/29 07:53:03;;;;;;;4.25;2.80;;;;;;;14.20;42.65;102484.31;4995006;28;20263;-53
2022/04/29 07:55:31;;;;;;;2.80;2.03;;;;;;;14.43;40.79;102481.94;4986738;28;20762;-53
2022/04/29 07:57:59;;;;;;;6.68;2.78;;;;;;;14.59;40.38;102479.50;4987168;28;20258;-52
2022/04/29 08:00:25;;;;;;;3.55;2.55;;;;;;;14.65;40.10;102472.50;5000515;28;20253;-55
2022/04/29 08:02:52;;;;;;;5.15;1.98;;;;;;;14.49;40.30;102467.88;4985821;28;20275;-53
2022/04/29 08:05:19;;;;;;;4.07;3.15;;;;;;;14.63;39.21;102471.59;4995012;28;20240;-54
2022/04/29 08:07:47;;;;;;;10.63;3.88;;;;;;;14.44;40.40;102473.13;4993316;28;20479;-55
2022/04/29 08:10:15;;;;;;;4.35;3.00;;;;;;;14.43;40.27;102467.84;4989350;28;20241;-55
2022/04/29 08:12:41;;;;;;;7.32;2.70;;;;;;;14.61;39.57;102468.06;4983395;28;20601;-53
2022/04/29 08:15:09;;;;;;;6.30;2.67;;;;;;;14.37;40.39;102465.13;4981172;28;20233;-52
2022/04/29 08:17:37;;;;;;;5.68;2.95;;;;;;;14.40;42.19;102473.09;4996417;28;20419;-53
2022/04/29 08:20:05;;;;;;;6.68;3.05;;;;;;;14.55;40.12;102473.28;4986708;28;20230;-54
2022/04/29 08:22:31;;;;;;;6.22;2.80;;;;;;;14.86;40.36;102468.31;4995039;28;20415;-52
2022/04/29 08:24:57;;;;;;;8.73;3.22;;;;;;;15.02;40.54;102472.84;4999160;28;20233;-53
2022/04/29 08:27:25;;;;;;;3.85;2.47;;;;;;;15.21;39.77;102472.13;4989440;28;20238;-52
2022/04/29 08:29:51;;;;;;;5.07;2.50;;;;;;;15.35;40.21;102469.59;4989692;28;20253;-52
2022/04/29 08:32:18;;;;;;;7.13;2.85;;;;;;;15.55;39.05;102472.38;4990029;28;20229;-53
2022/04/29 08:34:45;;;;;;;9.52;3.80;;;;;;;15.86;38.13;102475.22;4996199;28;20761;-53
2022/04/29 08:37:11;;;;;;;3.65;3.00;;;;;;;16.02;38.24;102477.06;5009951;28;20652;-54
2022/04/29 08:39:37;;;;;;;7.53;3.45;;;;;;;16.07;38.08;102471.78;4988264;28;20234;-54
2022/04/29 08:42:04;;;;;;;7.50;3.22;;;;;;;16.01;37.88;102467.34;4988176;28;20240;-53
2022/04/29 08:44:34;;;;;;;8.18;4.80;;;;;;;15.99;36.86;102466.44;4991637;28;20292;-53
2022/04/29 08:47:04;;;;;;;4.85;3.28;;;;;;;15.73;38.59;102466.34;4996610;28;20246;-54
2022/04/29 08:49:32;;;;;;;5.15;3.80;;;;;;;15.81;37.92;102469.03;4994941;28;20343;-58
2022/04/29 08:52:00;;;;;;;7.68;5.85;;;;;;;15.73;38.21;102467.22;5004843;28;20274;-53
2022/04/29 09:00:04;;;;;;;6.30;3.78;;;;;;;15.64;38.71;102461.81;5003956;28;20471;-52
2022/04/29 09:02:38;;;;;;;7.55;3.60;;;;;;;15.58;38.85;102467.06;4997567;28;20233;-52
2022/04/29 09:05:08;;;;;;;9.55;3.75;;;;;;;15.62;38.94;102458.31;4995794;28;20248;-52
2022/04/29 09:07:53;;;;;;;4.18;2.92;;;;;;;15.66;39.37;102465.41;4995789;28;20272;-52
2022/04/29 09:10:20;;;;;;;4.13;3.55;;;;;;;15.94;38.06;102462.91;5001669;28;20236;-58
2022/04/29 09:12:46;;;;;;;6.10;3.60;;;;;;;16.02;38.58;102458.50;4997771;28;20606;-55
2022/04/29 09:15:16;;;;;;;4.18;2.80;;;;;;;16.07;39.91;102456.75;4996915;28;20237;-54
2022/04/29 09:17:44;;;;;;;6.22;4.25;;;;;;;16.28;38.86;102453.28;4997675;28;20242;-53
2022/04/29 09:20:13;;;;;;;4.18;3.17;;;;;;;16.58;38.24;102457.81;4988102;28;20229;-53
2022/04/29 09:22:40;;;;;;;5.63;3.33;;;;;;;16.89;38.61;102452.56;4990745;28;20320;-53
2022/04/29 09:25:08;;;;;;;10.55;4.57;;;;;;;17.05;37.16;102451.66;4997489;28;20226;-53
2022/04/29 09:27:53;;;;;;;7.05;3.67;;;;;;;17.17;36.69;102454.31;4986484;28;20376;-53
2022/04/29 09:30:33;;;;;;;7.13;3.65;;;;;;;17.44;36.62;102452.50;4995309;28;20227;-53
2022/04/29 09:33:00;;;;;;;8.40;3.67;;;;;;;17.49;35.71;102458.72;4990884;28;20286;-53
2022/04/29 09:35:36;;;;;;;6.78;3.80;;;;;;;17.30;36.52;102446.34;4995386;28;20238;-52
2022/04/29 09:40:48;;;;;;;8.27;4.65;;;;;;;17.14;36.14;102449.00;4984982;28;20244;-53
2022/04/29 09:43:14;;;;;;;6.85;4.30;;;;;;;16.94;36.78;102446.34;4999028;28;20252;-62
2022/04/29 09:45:42;;;;;;;4.18;3.05;;;;;;;16.92;37.08;102444.63;5004602;28;20264;-53
2022/04/29 09:48:10;;;;;;;5.70;3.47;;;;;;;17.08;37.56;102441.06;5006876;28;20295;-55
2022/04/29 09:50:50;;;;;;;4.50;3.92;;;;;;;17.26;36.68;102431.31;4998292;28;20253;-52
2022/04/29 09:53:18;;;;;;;5.93;3.92;;;;;;;17.44;36.67;102433.91;4998740;28;20240;-53
2022/04/29 09:56:05;;;;;;;6.03;4.45;;;;;;;17.37;36.90;102427.75;4998225;28;20326;-53
2022/04/29 09:58:31;;;;;;;6.70;3.65;;;;;;;17.34;36.46;102427.75;5001957;28;20233;-53
2022/04/29 10:01:00;;;;;;;6.28;3.67;;;;;;;17.56;36.39;102425.94;5000312;28;20276;-56
2022/04/29 10:03:26;;;;;;;4.95;4.45;;;;;;;17.45;35.77;102425.09;4993524;28;20279;-52
2022/04/29 10:05:53;;;;;;;6.10;3.75;;;;;;;17.52;36.72;102432.16;4984489;28;20719;-53
2022/04/29 10:08:20;;;;;;;10.52;4.75;;;;;;;17.59;36.18;102428.59;4995398;28;20233;-52
2022/04/29 10:10:47;;;;;;;6.05;4.50;;;;;;;17.58;36.99;102423.25;4991526;28;20727;-52
2022/04/29 10:13:15;;;;;;;8.02;4.70;;;;;;;17.61;36.52;102424.13;5000388;28;20241;-54
2022/04/29 10:15:42;;;;;;;3.67;3.38;;;;;;;17.95;36.96;102418.72;5003231;28;20229;-53
2022/04/29 10:23:38;;;;;;;15.27;5.30;;;;;;;17.97;34.83;102416.06;5007794;28;20240;-52
2022/04/29 10:26:05;;;;;;;7.45;4.75;;;;;;;17.67;35.28;102409.06;4996744;28;20239;-54
2022/04/29 10:28:32;;;;;;;4.47;4.05;;;;;;;17.76;36.38;102417.94;4995332;28;20261;-54
2022/04/29 10:31:03;;;;;;;7.30;4.45;;;;;;;17.86;37.09;102416.97;5002870;28;20882;-53
2022/04/29 10:33:31;;;;;;;5.35;4.60;;;;;;;18.16;35.11;102414.19;5004681;28;20232;-52
2022/04/29 10:36:06;;;;;;;7.10;4.20;;;;;;;18.50;34.89;102406.91;4997761;28;20307;-51
2022/04/29 10:38:34;;;;;;;9.50;4.72;;;;;;;18.83;33.67;102404.00;4986206;28;20233;-52
2022/04/29 10:41:15;;;;;;;7.97;5.63;;;;;;;18.87;34.38;102395.97;4982399;28;20234;-53
2022/04/29 10:43:45;;;;;;;9.68;4.90;;;;;;;18.97;34.52;102405.66;4998846;28;20712;-53
2022/04/29 10:46:21;;;;;;;17.13;4.72;;;;;;;19.14;33.85;102397.50;5004994;28;20233;-52
2022/04/29 10:48:53;;;;;;;7.90;4.68;;;;;;;19.52;32.47;102395.31;5000098;28;20268;-53
2022/04/29 10:51:20;;;;;;;6.63;4.15;;;;;;;19.57;32.62;102391.72;4991285;28;20686;-52
2022/04/29 10:53:49;;;;;;;6.13;3.88;;;;;;;18.96;33.73;102388.81;5004890;28;20291;-52
2022/04/29 10:56:36;;;;;;;7.93;4.50;;;;;;;19.43;30.78;102395.41;5002489;28;20244;-54
2022/04/29 10:59:13;;;;;;;7.47;4.10;;;;;;;19.39;32.58;102388.34;4987676;28;20854;-53
2022/04/29 11:01:41;;;;;;;7.05;4.03;;;;;;;19.19;32.51;102385.03;4974861;28;20428;-53
2022/04/29 11:04:53;;;;;;;8.32;5.00;;;;;;;19.90;30.52;102386.00;4988249;28;20503;-53
2022/04/29 11:07:41;;;;;;;6.72;4.20;;;;;;;20.05;31.52;102384.91;4991739;28;20425;-58
2022/04/29 11:10:09;;;;;;;6.80;4.15;;;;;;;20.17;30.83;102373.16;5001662;28;20348;-58
2022/04/29 11:12:37;;;;;;;9.82;4.18;;;;;;;20.16;33.22;102376.75;5004947;28;20324;-52
2022/04/29 11:15:12;;;;;;;6.65;4.63;;;;;;;19.94;31.05;102370.84;4985990;28;20436;-52
2022/04/29 11:17:40;;;;;;;9.52;5.25;;;;;;;20.28;32.03;102368.53;4993254;28;20486;-52
2022/04/29 11:20:24;;;;;;;6.72;3.58;;;;;;;20.73;29.67;102366.06;4990942;28;20238;-51
2022/04/29 11:25:54;;;;;;;4.85;3.35;;;;;;;21.09;29.23;102363.66;4994434;28;20484;-53
2022/04/29 11:28:21;;;;;;;3.40;3.08;;;;;;;21.07;29.57;102362.81;4991253;28;21023;-53
2022/04/29 11:30:48;;;;;;;6.93;3.85;;;;;;;21.28;29.44;102357.06;4982656;28;20450;-52
2022/04/29 11:33:15;;;;;;;4.90;4.35;;;;;;;21.39;28.48;102357.75;5001021;28;20257;-52
2022/04/29 11:35:43;;;;;;;10.45;4.35;;;;;;;21.37;27.79;102351.53;5002496;28;20240;-52
2022/04/29 11:38:10;;;;;;;7.18;4.35;;;;;;;21.25;27.68;102357.13;4992318;28;20229;-52
2022/04/29 11:40:40;;;;;;;7.15;4.60;;;;;;;21.14;27.85;102348.44;5002943;28;20939;-52
2022/04/29 11:43:10;;;;;;;4.28;3.45;;;;;;;20.98;28.20;102351.38;4993144;28;20231;-52
2022/04/29 11:45:40;;;;;;;4.18;3.78;;;;;;;21.01;28.96;102347.78;5000538;28;20715;-50
2022/04/29 11:48:09;;;;;;;5.82;3.42;;;;;;;21.39;28.50;102336.38;4995545;28;20706;-52
2022/04/29 11:50:35;;;;;;;5.05;4.03;;;;;;;21.24;27.63;102341.13;4991232;28;20236;-52
2022/04/29 11:53:07;;;;;;;4.72;4.18;;;;;;;21.47;27.91;102332.66;4979655;28;20234;-53
2022/04/29 11:55:34;;;;;;;6.72;4.65;;;;;;;21.25;27.47;102340.22;4986528;28;20274;-51
2022/04/29 11:58:01;;;;;;;4.50;4.05;;;;;;;21.51;27.24;102337.91;4995205;28;20241;-52
2022/04/29 12:00:29;;;;;;;4.88;4.15;;;;;;;21.21;28.20;102334.91;5009441;28;20268;-51
2022/04/29 12:02:57;;;;;;;6.28;3.83;;;;;;;21.25;28.20;102332.19;5000251;28;20318;-53
2022/04/29 12:05:23;;;;;;;10.05;4.50;;;;;;;20.90;28.51;102329.28;5004984;28;20234;-52